createdAt,value
2022-10-30T00:00:28.064Z,1.30
2022-10-30T00:03:19.366Z,1.33
2022-10-30T00:05:51.718Z,4.78
2022-10-30T00:08:23.105Z,12.68
2022-10-30T00:10:52.847Z,12.80
2022-10-30T00:13:23.235Z,7.15
2022-10-30T00:15:54.113Z,8.77
2022-10-30T00:18:24.945Z,9.02
2022-10-30T00:20:54.252Z,22.85
2022-10-30T00:23:23.617Z,16.73
2022-10-30T00:25:53.039Z,4.72
2022-10-30T00:28:22.343Z,9.20
2022-10-30T00:30:51.888Z,6.30
2022-10-30T00:33:21.072Z,3.67
2022-10-30T00:35:52.414Z,18.60
2022-10-30T00:38:21.999Z,15.23
2022-10-30T00:40:51.711Z,5.82
2022-10-30T00:43:36.815Z,8.38
2022-10-30T00:46:15.010Z,6.20
2022-10-30T00:48:46.920Z,4.65
2022-10-30T00:51:18.194Z,2.15
2022-10-30T00:53:49.100Z,1.77
2022-10-30T00:56:22.239Z,1.73
2022-10-30T00:58:55.577Z,1.95
2022-10-30T01:01:28.466Z,3.13
2022-10-30T01:04:01.571Z,2.75
2022-10-30T01:06:36.999Z,2.08
2022-10-30T01:09:07.029Z,7.72
2022-10-30T01:11:36.867Z,9.30
2022-10-30T01:14:09.811Z,5.30
2022-10-30T01:16:59.007Z,5.97
2022-10-30T01:19:41.054Z,2.80
2022-10-30T01:22:25.078Z,2.67
2022-10-30T01:25:04.810Z,1.95
2022-10-30T01:27:46.273Z,2.88
2022-10-30T01:30:34.438Z,1.92
2022-10-30T01:33:17.652Z,2.50
2022-10-30T01:35:53.902Z,2.42
2022-10-30T01:38:29.419Z,2.50
2022-10-30T01:40:58.940Z,2.38
2022-10-30T01:43:29.130Z,2.97
2022-10-30T01:46:26.420Z,2.80
2022-10-30T01:49:17.379Z,2.17
2022-10-30T01:51:58.507Z,3.15
2022-10-30T01:54:40.341Z,2.63
2022-10-30T01:57:19.416Z,2.13
2022-10-30T01:59:56.936Z,2.13
2022-10-30T02:02:26.458Z,1.73
2022-10-30T02:04:57.775Z,2.00
2022-10-30T02:07:27.278Z,2.40
2022-10-30T02:09:58.203Z,2.90
2022-10-30T02:12:30.763Z,2.25
2022-10-30T02:15:03.028Z,2.05
2022-10-30T02:17:32.457Z,2.13
2022-10-30T02:20:01.796Z,1.48
2022-10-30T02:22:33.682Z,1.70
2022-10-30T02:25:03.417Z,1.65
2022-10-30T02:27:32.659Z,2.10
2022-10-30T02:30:02.078Z,1.65
2022-10-30T02:32:31.716Z,3.28
2022-10-30T02:35:01.117Z,3.20
2022-10-30T02:37:32.793Z,2.50
2022-10-30T02:40:02.350Z,1.85
2022-10-30T02:42:31.908Z,2.60
2022-10-30T02:45:01.110Z,2.10
2022-10-30T02:47:31.241Z,2.30
2022-10-30T02:50:00.572Z,1.63
2022-10-30T02:52:29.784Z,1.90
2022-10-30T02:55:00.774Z,1.70
2022-10-30T02:57:32.056Z,2.30
2022-10-30T03:00:01.781Z,2.22
2022-10-30T03:02:32.961Z,2.40
2022-10-30T03:05:02.975Z,2.50
2022-10-30T03:07:32.316Z,3.00
2022-10-30T03:10:02.958Z,4.43
2022-10-30T03:12:33.867Z,4.28
2022-10-30T03:15:03.100Z,2.97
2022-10-30T03:17:32.640Z,2.13
2022-10-30T03:20:02.893Z,2.20
2022-10-30T03:22:32.077Z,2.17
2022-10-30T03:25:04.547Z,2.40
2022-10-30T03:27:35.825Z,2.42
2022-10-30T03:35:29.091Z,2.50
2022-10-30T03:37:58.704Z,1.77
2022-10-30T03:40:29.307Z,2.20
2022-10-30T03:42:58.943Z,2.22
2022-10-30T03:45:28.525Z,2.20
2022-10-30T03:47:58.151Z,2.05
2022-10-30T03:50:27.897Z,1.88
2022-10-30T03:52:57.810Z,2.05
2022-10-30T03:55:28.886Z,2.28
2022-10-30T03:57:58.997Z,2.03
2022-10-30T04:00:28.643Z,1.55
2022-10-30T04:03:01.762Z,1.88
2022-10-30T04:05:33.746Z,1.80
2022-10-30T04:08:08.692Z,2.50
2022-10-30T04:10:44.366Z,3.40
2022-10-30T04:13:17.589Z,3.13
2022-10-30T04:15:57.884Z,2.42
2022-10-30T04:18:28.905Z,3.40
2022-10-30T04:21:01.296Z,3.53
2022-10-30T04:23:31.051Z,4.10
2022-10-30T04:26:03.849Z,4.03
2022-10-30T04:28:33.881Z,4.82
2022-10-30T04:31:03.594Z,4.38
2022-10-30T04:33:33.709Z,4.68
2022-10-30T04:36:03.501Z,5.05
2022-10-30T04:38:34.410Z,4.72
2022-10-30T04:41:07.141Z,4.38
2022-10-30T04:43:56.264Z,5.10
2022-10-30T04:46:25.983Z,5.32
2022-10-30T04:48:57.959Z,5.82
2022-10-30T04:51:27.558Z,4.97
2022-10-30T04:53:57.036Z,5.18
2022-10-30T04:56:27.751Z,4.78
2022-10-30T04:58:57.343Z,4.82
2022-10-30T05:01:26.826Z,5.80
2022-10-30T05:03:59.095Z,5.47
2022-10-30T05:06:31.545Z,5.50
2022-10-30T05:09:01.079Z,5.80
2022-10-30T05:11:37.191Z,6.45
2022-10-30T05:14:06.510Z,7.65
2022-10-30T05:16:36.069Z,5.72
2022-10-30T05:19:07.396Z,6.38
2022-10-30T05:21:37.701Z,6.10
2022-10-30T05:24:08.634Z,5.75
2022-10-30T05:26:46.241Z,6.53
2022-10-30T05:29:15.819Z,6.30
2022-10-30T05:31:45.389Z,5.53
2022-10-30T05:34:38.242Z,5.93
2022-10-30T05:37:07.778Z,5.40
2022-10-30T05:39:38.802Z,6.38
2022-10-30T05:42:17.382Z,5.43
2022-10-30T05:45:00.292Z,5.43
2022-10-30T05:47:32.002Z,7.60
2022-10-30T05:50:01.297Z,6.75
2022-10-30T05:52:31.329Z,7.05
2022-10-30T05:55:02.370Z,7.63
2022-10-30T05:57:59.257Z,6.95
2022-10-30T06:00:29.643Z,6.68
2022-10-30T06:03:03.122Z,7.07
2022-10-30T06:05:35.719Z,7.28
2022-10-30T06:08:05.981Z,7.68
2022-10-30T06:10:36.951Z,7.40
2022-10-30T06:13:16.953Z,7.18
2022-10-30T06:15:59.357Z,9.77
2022-10-30T06:18:38.232Z,10.07
2022-10-30T06:21:12.610Z,8.40
2022-10-30T06:24:08.035Z,8.00
2022-10-30T06:27:03.450Z,6.82
2022-10-30T06:29:34.407Z,7.50
2022-10-30T06:32:06.564Z,6.90
2022-10-30T06:34:36.753Z,6.63
2022-10-30T06:37:06.564Z,5.85
2022-10-30T06:39:36.032Z,5.53
2022-10-30T06:42:22.485Z,8.00
2022-10-30T06:45:11.015Z,6.18
2022-10-30T06:47:40.573Z,6.68
2022-10-30T06:50:12.411Z,6.20
2022-10-30T06:52:42.304Z,6.35
2022-10-30T06:55:12.340Z,7.85
2022-10-30T06:58:02.257Z,7.13
2022-10-30T07:01:01.014Z,9.82
2022-10-30T07:03:37.229Z,10.88
2022-10-30T07:06:07.199Z,13.23
2022-10-30T07:08:37.073Z,14.18
2022-10-30T07:11:06.992Z,12.25
2022-10-30T07:13:56.509Z,7.00
2022-10-30T07:16:39.321Z,5.18
2022-10-30T07:19:08.663Z,4.68
2022-10-30T07:21:38.346Z,5.20
2022-10-30T07:24:09.569Z,6.53
2022-10-30T07:26:52.047Z,7.32
2022-10-30T07:29:34.248Z,8.13
2022-10-30T07:32:24.540Z,6.07
2022-10-30T07:35:14.893Z,4.93
2022-10-30T07:38:12.971Z,5.28
2022-10-30T07:40:54.711Z,5.35
2022-10-30T07:43:46.270Z,8.88
2022-10-30T07:46:50.945Z,7.20
2022-10-30T07:49:47.837Z,6.13
2022-10-30T07:52:17.757Z,6.40
2022-10-30T07:54:50.639Z,6.07
2022-10-30T07:57:43.986Z,8.25
2022-10-30T08:00:42.681Z,5.63
2022-10-30T08:03:22.288Z,6.53
2022-10-30T08:06:21.642Z,5.32
2022-10-30T08:08:54.201Z,5.40
2022-10-30T08:11:31.237Z,5.93
2022-10-30T08:14:02.415Z,8.50
2022-10-30T08:16:32.263Z,4.88
2022-10-30T08:19:01.629Z,4.30
2022-10-30T08:21:33.382Z,4.55
2022-10-30T08:24:09.129Z,4.10
2022-10-30T08:26:38.874Z,3.85
2022-10-30T08:29:08.371Z,3.55
2022-10-30T08:31:38.027Z,3.55
2022-10-30T08:34:32.505Z,4.38
2022-10-30T08:37:08.161Z,3.47
2022-10-30T08:39:37.864Z,2.97
2022-10-30T08:42:27.487Z,2.65
2022-10-30T08:44:59.554Z,2.42
2022-10-30T08:47:47.702Z,2.20
2022-10-30T08:50:17.477Z,2.55
2022-10-30T08:52:50.903Z,2.45
2022-10-30T08:55:23.582Z,2.40
2022-10-30T08:57:53.018Z,2.05
2022-10-30T09:00:22.549Z,2.20
2022-10-30T09:03:29.856Z,2.60
2022-10-30T09:06:33.441Z,2.45
2022-10-30T09:09:39.579Z,2.13
2022-10-30T09:12:09.878Z,2.30
2022-10-30T09:14:46.162Z,1.73
2022-10-30T09:17:15.708Z,2.40
2022-10-30T09:22:31.933Z,2.15
2022-10-30T09:25:02.919Z,2.67
2022-10-30T09:27:48.907Z,2.53
2022-10-30T09:30:20.597Z,2.13
2022-10-30T09:32:58.717Z,2.40
2022-10-30T09:35:48.527Z,1.80
2022-10-30T09:38:17.805Z,2.10
2022-10-30T09:41:10.553Z,2.40
2022-10-30T09:43:52.363Z,2.28
2022-10-30T09:46:34.288Z,2.50
2022-10-30T09:49:34.368Z,3.20
2022-10-30T09:52:23.537Z,2.70
2022-10-30T09:55:16.481Z,2.50
2022-10-30T09:57:56.363Z,2.20
2022-10-30T10:00:32.190Z,2.33
2022-10-30T10:03:18.116Z,2.40
2022-10-30T10:06:14.028Z,2.20
2022-10-30T10:09:00.532Z,2.22
2022-10-30T10:11:54.810Z,2.40
2022-10-30T10:14:29.379Z,2.15
2022-10-30T10:17:02.328Z,2.25
2022-10-30T10:19:37.149Z,2.10
2022-10-30T10:22:14.922Z,2.30
2022-10-30T10:24:47.692Z,2.30
2022-10-30T10:27:27.902Z,1.90
2022-10-30T10:30:05.907Z,2.00
2022-10-30T10:32:58.701Z,1.98
2022-10-30T10:35:54.757Z,2.78
2022-10-30T10:38:38.231Z,2.10
2022-10-30T10:41:20.002Z,2.72
2022-10-30T10:44:05.178Z,2.53
2022-10-30T10:47:07.211Z,2.65
2022-10-30T10:49:58.253Z,2.75
2022-10-30T10:52:37.031Z,2.40
2022-10-30T10:55:11.718Z,2.50
2022-10-30T10:57:43.518Z,2.28
2022-10-30T11:00:18.866Z,2.60
2022-10-30T11:02:58.657Z,2.47
2022-10-30T11:05:34.895Z,4.13
2022-10-30T11:08:13.472Z,4.30
2022-10-30T11:10:42.861Z,3.55
2022-10-30T11:13:14.683Z,3.65
2022-10-30T11:15:56.502Z,2.92
2022-10-30T11:18:27.518Z,3.33
2022-10-30T11:21:02.549Z,3.40
2022-10-30T11:23:40.983Z,3.60
2022-10-30T11:26:29.610Z,3.70
2022-10-30T11:29:03.899Z,5.40
2022-10-30T11:31:40.219Z,4.00
2022-10-30T11:34:30.085Z,4.68
2022-10-30T11:36:59.380Z,3.50
2022-10-30T11:39:30.796Z,2.67
2022-10-30T11:42:04.763Z,2.72
2022-10-30T11:44:37.896Z,3.78
2022-10-30T11:47:08.747Z,3.67
2022-10-30T11:49:46.028Z,3.85
2022-10-30T11:52:19.276Z,3.83
2022-10-30T11:54:53.371Z,3.05
2022-10-30T11:57:32.662Z,3.42
2022-10-30T12:00:05.673Z,3.05
2022-10-30T12:02:44.373Z,3.28
2022-10-30T12:05:36.473Z,3.20
2022-10-30T12:08:20.643Z,3.65
2022-10-30T12:11:01.829Z,4.20
2022-10-30T12:13:40.481Z,3.35
2022-10-30T12:16:16.743Z,4.63
2022-10-30T12:19:00.860Z,5.20
2022-10-30T12:21:38.040Z,5.35
2022-10-30T12:24:14.819Z,4.97
2022-10-30T12:26:49.955Z,4.45
2022-10-30T12:29:22.224Z,4.50
2022-10-30T12:31:58.212Z,3.45
2022-10-30T12:34:35.197Z,4.18
2022-10-30T12:37:12.999Z,3.50
2022-10-30T12:39:57.722Z,3.75
2022-10-30T12:42:28.167Z,3.53
2022-10-30T12:45:09.025Z,3.22
2022-10-30T12:47:44.381Z,3.25
2022-10-30T12:50:22.093Z,4.53
2022-10-30T12:53:01.719Z,5.38
2022-10-30T12:55:38.244Z,4.68
2022-10-30T12:58:20.078Z,4.95
2022-10-30T13:00:56.024Z,5.57
2022-10-30T13:03:30.878Z,4.93
2022-10-30T13:06:04.479Z,3.88
2022-10-30T13:08:39.996Z,3.72
2022-10-30T13:13:46.106Z,3.38
2022-10-30T13:16:20.456Z,3.90
2022-10-30T13:18:50.136Z,3.67
2022-10-30T13:21:26.490Z,3.50
2022-10-30T13:24:03.269Z,3.75
2022-10-30T13:26:40.574Z,4.18
2022-10-30T13:29:23.210Z,3.78
2022-10-30T13:32:07.825Z,5.07
2022-10-30T13:34:47.026Z,4.20
2022-10-30T13:37:23.370Z,4.78
2022-10-30T13:40:06.618Z,5.38
2022-10-30T13:42:52.046Z,5.03
2022-10-30T13:45:52.430Z,13.45
2022-10-30T13:48:31.588Z,9.52
2022-10-30T13:51:23.932Z,6.13
2022-10-30T13:54:02.964Z,5.47
2022-10-30T13:56:34.797Z,4.82
2022-10-30T13:59:15.682Z,5.00
2022-10-30T14:01:55.306Z,4.93
2022-10-30T14:04:35.167Z,4.57
2022-10-30T14:07:20.182Z,4.43
2022-10-30T14:09:56.094Z,4.82
2022-10-30T14:12:51.587Z,5.15
2022-10-30T14:15:33.032Z,5.15
2022-10-30T14:18:28.253Z,7.07
2022-10-30T14:20:59.495Z,7.68
2022-10-30T14:23:35.168Z,5.90
2022-10-30T14:26:22.731Z,4.20
2022-10-30T14:28:56.384Z,4.70
2022-10-30T14:31:36.707Z,4.20
2022-10-30T14:34:06.349Z,4.13
2022-10-30T14:36:51.016Z,4.43
2022-10-30T14:39:31.281Z,4.57
2022-10-30T14:42:17.381Z,5.78
2022-10-30T14:45:01.900Z,6.25
2022-10-30T14:47:54.406Z,5.40
2022-10-30T14:50:48.118Z,6.53
2022-10-30T14:53:35.924Z,5.15
2022-10-30T14:56:12.240Z,4.60
2022-10-30T14:58:41.980Z,5.20
2022-10-30T15:01:34.861Z,4.97
2022-10-30T15:04:21.939Z,5.45
2022-10-30T15:06:59.659Z,4.60
2022-10-30T15:09:49.103Z,4.57
2022-10-30T15:12:43.587Z,4.88
2022-10-30T15:15:16.411Z,4.47
2022-10-30T15:17:49.984Z,5.05
2022-10-30T15:20:23.007Z,6.07
2022-10-30T15:22:56.258Z,5.88
2022-10-30T15:25:29.242Z,5.47
2022-10-30T15:28:00.316Z,5.60
2022-10-30T15:30:30.296Z,5.47
2022-10-30T15:33:01.548Z,5.25
2022-10-30T15:35:31.322Z,5.18
2022-10-30T15:38:06.012Z,6.35
2022-10-30T15:40:36.540Z,7.32
2022-10-30T15:43:08.883Z,6.70
2022-10-30T15:45:40.852Z,8.77
2022-10-30T15:48:26.301Z,8.68
2022-10-30T15:51:01.609Z,8.38
2022-10-30T15:56:04.837Z,8.07
2022-10-30T15:58:37.577Z,7.57
2022-10-30T16:01:06.915Z,16.40
2022-10-30T16:03:37.954Z,14.38
2022-10-30T16:06:14.748Z,13.80
2022-10-30T16:08:48.904Z,12.30
2022-10-30T16:11:18.481Z,12.57
2022-10-30T16:13:48.034Z,13.48
2022-10-30T16:16:22.961Z,15.13
2022-10-30T16:18:55.723Z,17.27
2022-10-30T16:21:29.691Z,17.27
2022-10-30T16:24:01.703Z,19.58
2022-10-30T16:26:33.973Z,18.50
2022-10-30T16:29:10.252Z,21.70
2022-10-30T16:31:40.578Z,14.85
2022-10-30T16:34:17.409Z,16.58
2022-10-30T16:36:47.066Z,14.30
2022-10-30T16:39:18.580Z,11.13
2022-10-30T16:41:48.187Z,11.20
2022-10-30T16:44:27.422Z,10.75
2022-10-30T16:46:59.613Z,10.15
2022-10-30T16:49:33.659Z,10.48
2022-10-30T16:52:06.714Z,11.35
2022-10-30T16:54:41.098Z,11.90
2022-10-30T16:57:17.801Z,12.60
2022-10-30T16:59:49.568Z,16.90
2022-10-30T17:02:22.536Z,25.80
2022-10-30T17:04:58.262Z,19.88
2022-10-30T17:09:59.328Z,25.02
2022-10-30T17:12:30.480Z,25.52
2022-10-30T17:15:12.749Z,21.42
2022-10-30T17:17:43.305Z,20.92
2022-10-30T17:20:31.098Z,20.63
2022-10-30T17:23:14.766Z,19.50
2022-10-30T17:26:13.354Z,20.50
2022-10-30T17:28:43.401Z,20.42
2022-10-30T17:31:31.233Z,20.95
2022-10-30T17:34:18.867Z,22.13
2022-10-30T17:36:50.885Z,36.67
2022-10-30T17:39:20.238Z,21.40
2022-10-30T17:41:49.915Z,21.05
2022-10-30T17:44:22.948Z,20.13
2022-10-30T17:46:52.755Z,20.60
2022-10-30T17:49:27.936Z,19.95
2022-10-30T17:51:59.210Z,19.45
2022-10-30T17:54:28.514Z,22.90
2022-10-30T17:56:58.940Z,23.08
2022-10-30T17:59:28.182Z,21.40
2022-10-30T18:01:57.856Z,22.52
2022-10-30T18:04:27.183Z,21.52
2022-10-30T18:06:58.398Z,21.75
2022-10-30T18:09:27.820Z,23.42
2022-10-30T18:11:57.221Z,25.92
2022-10-30T18:14:26.630Z,23.80
2022-10-30T18:16:55.990Z,24.80
2022-10-30T18:19:25.698Z,23.75
2022-10-30T18:21:55.017Z,24.15
2022-10-30T18:24:26.450Z,21.38
2022-10-30T18:26:56.931Z,24.75
2022-10-30T18:29:26.386Z,25.08
2022-10-30T18:31:55.723Z,25.80
2022-10-30T18:34:25.411Z,24.38
2022-10-30T18:36:54.621Z,23.23
2022-10-30T18:39:25.732Z,25.95
2022-10-30T18:41:56.467Z,26.58
2022-10-30T18:44:25.962Z,26.45
2022-10-30T18:47:00.078Z,24.20
2022-10-30T18:49:33.477Z,23.67
2022-10-30T18:52:03.029Z,23.00
2022-10-30T18:54:33.862Z,23.17
2022-10-30T18:57:03.543Z,23.65
2022-10-30T18:59:34.772Z,22.98
2022-10-30T19:02:04.306Z,24.52
2022-10-30T19:04:33.882Z,26.92
2022-10-30T19:07:03.998Z,26.10
2022-10-30T19:09:34.971Z,21.30
2022-10-30T19:12:04.252Z,19.73
2022-10-30T19:14:33.853Z,18.17
2022-10-30T19:17:03.230Z,20.02
2022-10-30T19:19:32.552Z,18.23
2022-10-30T19:22:02.034Z,17.63
2022-10-30T19:24:31.616Z,20.20
2022-10-30T19:27:03.485Z,20.38
2022-10-30T19:29:32.979Z,19.52
2022-10-30T19:32:02.487Z,19.23
2022-10-30T19:34:31.676Z,18.67
2022-10-30T19:37:01.329Z,21.10
2022-10-30T19:39:32.938Z,25.08
2022-10-30T19:42:04.165Z,21.08
2022-10-30T19:44:33.449Z,20.35
2022-10-30T19:47:03.032Z,21.83
2022-10-30T19:49:34.635Z,23.85
2022-10-30T19:52:04.249Z,24.30
2022-10-30T19:54:33.532Z,21.75
2022-10-30T19:57:04.467Z,24.80
2022-10-30T19:59:34.090Z,26.95
2022-10-30T20:02:03.587Z,26.80
2022-10-30T20:04:33.159Z,28.65
2022-10-30T20:07:02.853Z,30.88
2022-10-30T20:09:32.478Z,36.33
2022-10-30T20:12:03.191Z,32.78
2022-10-30T20:14:32.765Z,35.95
2022-10-30T20:17:02.234Z,36.47
2022-10-30T20:19:33.071Z,36.30
2022-10-30T20:22:02.570Z,32.63
2022-10-30T20:24:31.796Z,35.95
2022-10-30T20:27:01.161Z,34.63
2022-10-30T20:29:32.012Z,34.67
2022-10-30T20:32:01.204Z,34.10
2022-10-30T20:34:31.071Z,33.75
2022-10-30T20:37:00.304Z,37.30
2022-10-30T20:39:29.778Z,34.60
2022-10-30T20:41:59.241Z,35.85
2022-10-30T20:44:28.643Z,34.83
2022-10-30T20:46:59.342Z,34.53
2022-10-30T20:49:30.423Z,32.83
2022-10-30T20:51:59.683Z,34.95
2022-10-30T20:54:29.073Z,31.10
2022-10-30T20:56:58.415Z,29.88
2022-10-30T20:59:27.687Z,29.52
2022-10-30T21:01:58.691Z,28.65
2022-10-30T21:04:28.051Z,21.10
2022-10-30T21:06:57.728Z,21.23
2022-10-30T21:09:27.141Z,19.38
2022-10-30T21:11:56.552Z,21.02
2022-10-30T21:14:25.801Z,19.70
2022-10-30T21:16:55.028Z,17.80
2022-10-30T21:19:26.762Z,18.73
2022-10-30T21:21:58.459Z,18.05
2022-10-30T21:24:28.576Z,17.98
2022-10-30T21:26:57.958Z,19.27
2022-10-30T21:29:29.006Z,19.42
2022-10-30T21:32:02.120Z,18.37
2022-10-30T21:34:32.755Z,17.70
2022-10-30T21:37:02.199Z,18.13
2022-10-30T21:39:32.293Z,19.58
2022-10-30T21:42:01.686Z,18.35
2022-10-30T21:44:30.857Z,17.50
2022-10-30T21:47:00.158Z,22.15
2022-10-30T21:49:31.148Z,21.55
2022-10-30T21:52:00.468Z,18.92
2022-10-30T21:54:29.889Z,18.20
2022-10-30T21:56:59.222Z,19.77
2022-10-30T21:59:28.480Z,20.10
2022-10-30T22:01:57.965Z,18.85
2022-10-30T22:04:27.516Z,19.15
2022-10-30T22:06:58.180Z,18.67
2022-10-30T22:09:27.755Z,17.55
2022-10-30T22:11:57.124Z,18.08
2022-10-30T22:14:27.077Z,18.90
2022-10-30T22:16:56.532Z,17.15
2022-10-30T22:19:25.823Z,18.83
2022-10-30T22:21:55.126Z,19.35
2022-10-30T22:24:25.976Z,17.60
2022-10-30T22:26:55.302Z,20.85
2022-10-30T22:29:24.575Z,18.08
2022-10-30T22:32:03.264Z,17.20
2022-10-30T22:34:32.496Z,17.98
2022-10-30T22:37:01.961Z,17.65
2022-10-30T22:39:32.632Z,18.00
2022-10-30T22:42:07.646Z,18.83
2022-10-30T22:44:37.016Z,17.17
2022-10-30T22:47:06.514Z,19.23
2022-10-30T22:49:35.729Z,18.13
2022-10-30T22:52:05.291Z,18.73
2022-10-30T22:54:36.098Z,18.73
2022-10-30T22:57:05.397Z,18.10
2022-10-30T22:59:34.584Z,18.02
2022-10-30T23:02:04.129Z,17.77
2022-10-30T23:04:33.542Z,18.25
2022-10-30T23:07:09.023Z,18.20
2022-10-30T23:09:39.675Z,18.58
2022-10-30T23:12:09.265Z,17.50
2022-10-30T23:14:38.576Z,17.50
2022-10-30T23:17:08.133Z,17.38
2022-10-30T23:19:37.290Z,17.45
2022-10-30T23:22:06.817Z,17.00
2022-10-30T23:24:36.025Z,17.92
2022-10-30T23:27:06.798Z,18.15
2022-10-30T23:29:36.066Z,17.75
2022-10-30T23:32:05.734Z,16.90
2022-10-30T23:34:34.946Z,19.13
2022-10-30T23:37:04.290Z,16.48
2022-10-30T23:39:33.492Z,17.15
2022-10-30T23:42:02.889Z,17.20
2022-10-30T23:44:33.643Z,16.70
2022-10-30T23:47:03.190Z,17.17
2022-10-30T23:49:34.151Z,15.52
2022-10-30T23:52:03.789Z,15.38
2022-10-30T23:54:33.126Z,15.73
2022-10-30T23:57:02.661Z,16.05
2022-10-30T23:59:33.231Z,15.20
